sensor_id;sensor_type;location;lat;lon;timestamp;temperature;humidity
2477;DHT22;1249;51.270;6.756;2022-12-29T00:00:18;12.50;99.90
2477;DHT22;1249;51.270;6.756;2022-12-29T00:02:46;12.50;99.90
2477;DHT22;1249;51.270;6.756;2022-12-29T00:05:13;12.60;99.90
2477;DHT22;1249;51.270;6.756;2022-12-29T00:07:40;12.50;99.90
2477;DHT22;1249;51.270;6.756;2022-12-29T00:10:07;12.50;99.90
2477;DHT22;1249;51.270;6.756;2022-12-29T00:12:34;12.40;99.90
2477;DHT22;1249;51.270;6.756;2022-12-29T00:15:15;12.40;99.90
2477;DHT22;1249;51.270;6.756;2022-12-29T00:18:00;12.30;99.90
2477;DHT22;1249;51.270;6.756;2022-12-29T00:20:27;12.30;99.90
2477;DHT22;1249;51.270;6.756;2022-12-29T00:23:12;12.30;99.90
2477;DHT22;1249;51.270;6.756;2022-12-29T00:25:52;12.30;99.90
2477;DHT22;1249;51.270;6.756;2022-12-29T00:28:37;12.20;99.90
2477;DHT22;1249;51.270;6.756;2022-12-29T00:31:21;12.30;99.90
2477;DHT22;1249;51.270;6.756;2022-12-29T00:34:10;12.30;99.90
2477;DHT22;1249;51.270;6.756;2022-12-29T00:36:55;12.30;99.90
2477;DHT22;1249;51.270;6.756;2022-12-29T00:39:22;12.30;99.90
2477;DHT22;1249;51.270;6.756;2022-12-29T00:42:07;12.30;99.90
2477;DHT22;1249;51.270;6.756;2022-12-29T00:45:00;12.30;99.90
2477;DHT22;1249;51.270;6.756;2022-12-29T00:47:27;12.20;99.90
2477;DHT22;1249;51.270;6.756;2022-12-29T00:49:55;12.40;99.90
2477;DHT22;1249;51.270;6.756;2022-12-29T00:52:21;12.20;99.90
2477;DHT22;1249;51.270;6.756;2022-12-29T00:54:48;12.30;99.90
2477;DHT22;1249;51.270;6.756;2022-12-29T00:57:16;12.20;99.90
2477;DHT22;1249;51.270;6.756;2022-12-29T00:59:43;12.20;99.90
2477;DHT22;1249;51.270;6.756;2022-12-29T01:02:10;12.20;99.90
2477;DHT22;1249;51.270;6.756;2022-12-29T01:04:37;12.20;99.90
2477;DHT22;1249;51.270;6.756;2022-12-29T01:07:05;12.20;99.90
2477;DHT22;1249;51.270;6.756;2022-12-29T01:09:32;12.20;99.90
2477;DHT22;1249;51.270;6.756;2022-12-29T01:12:17;12.20;99.90
2477;DHT22;1249;51.270;6.756;2022-12-29T01:15:04;12.20;99.90
2477;DHT22;1249;51.270;6.756;2022-12-29T01:17:31;12.20;99.90
2477;DHT22;1249;51.270;6.756;2022-12-29T01:19:58;12.30;99.90
2477;DHT22;1249;51.270;6.756;2022-12-29T01:22:27;12.40;99.90
2477;DHT22;1249;51.270;6.756;2022-12-29T01:24:54;12.30;99.90
2477;DHT22;1249;51.270;6.756;2022-12-29T01:27:21;12.20;99.90
2477;DHT22;1249;51.270;6.756;2022-12-29T01:29:47;12.20;99.90
2477;DHT22;1249;51.270;6.756;2022-12-29T01:32:14;12.20;99.90
2477;DHT22;1249;51.270;6.756;2022-12-29T01:34:41;12.10;99.90
2477;DHT22;1249;51.270;6.756;2022-12-29T01:37:08;12.10;99.90
2477;DHT22;1249;51.270;6.756;2022-12-29T01:39:36;12.10;99.90
2477;DHT22;1249;51.270;6.756;2022-12-29T01:42:03;12.10;99.90
2477;DHT22;1249;51.270;6.756;2022-12-29T01:44:49;12.20;99.90
2477;DHT22;1249;51.270;6.756;2022-12-29T01:50:08;12.10;99.90
2477;DHT22;1249;51.270;6.756;2022-12-29T01:52:42;12.30;99.90
2477;DHT22;1249;51.270;6.756;2022-12-29T01:55:11;12.30;99.90
2477;DHT22;1249;51.270;6.756;2022-12-29T01:57:41;12.20;99.90
2477;DHT22;1249;51.270;6.756;2022-12-29T02:00:12;12.20;99.90
2477;DHT22;1249;51.270;6.756;2022-12-29T02:02:40;12.10;99.90
2477;DHT22;1249;51.270;6.756;2022-12-29T02:05:11;12.10;99.90
2477;DHT22;1249;51.270;6.756;2022-12-29T02:07:41;12.30;99.90
2477;DHT22;1249;51.270;6.756;2022-12-29T02:10:09;12.20;99.90
2477;DHT22;1249;51.270;6.756;2022-12-29T02:12:36;12.20;99.90
2477;DHT22;1249;51.270;6.756;2022-12-29T02:15:04;12.30;99.90
2477;DHT22;1249;51.270;6.756;2022-12-29T02:17:41;12.50;99.90
2477;DHT22;1249;51.270;6.756;2022-12-29T02:23:26;12.40;99.90
2477;DHT22;1249;51.270;6.756;2022-12-29T02:26:22;12.30;99.90
2477;DHT22;1249;51.270;6.756;2022-12-29T02:29:16;12.30;99.90
2477;DHT22;1249;51.270;6.756;2022-12-29T02:31:52;12.40;99.90
2477;DHT22;1249;51.270;6.756;2022-12-29T02:34:34;12.50;99.90
2477;DHT22;1249;51.270;6.756;2022-12-29T02:37:09;12.60;99.90
2477;DHT22;1249;51.270;6.756;2022-12-29T02:39:43;12.50;99.90
2477;DHT22;1249;51.270;6.756;2022-12-29T02:42:22;12.40;99.90
2477;DHT22;1249;51.270;6.756;2022-12-29T02:44:56;12.50;99.90
2477;DHT22;1249;51.270;6.756;2022-12-29T02:47:33;12.40;99.90
2477;DHT22;1249;51.270;6.756;2022-12-29T02:50:06;12.50;99.90
2477;DHT22;1249;51.270;6.756;2022-12-29T02:52:37;12.50;99.90
2477;DHT22;1249;51.270;6.756;2022-12-29T02:55:06;12.60;99.90
2477;DHT22;1249;51.270;6.756;2022-12-29T02:57:34;12.50;99.90
2477;DHT22;1249;51.270;6.756;2022-12-29T03:00:05;12.80;99.90
2477;DHT22;1249;51.270;6.756;2022-12-29T03:03:03;12.70;99.90
2477;DHT22;1249;51.270;6.756;2022-12-29T03:05:46;12.80;99.90
2477;DHT22;1249;51.270;6.756;2022-12-29T03:08:23;12.70;99.90
2477;DHT22;1249;51.270;6.756;2022-12-29T03:10:59;12.60;99.90
2477;DHT22;1249;51.270;6.756;2022-12-29T03:13:30;12.70;99.90
2477;DHT22;1249;51.270;6.756;2022-12-29T03:16:21;12.60;99.90
2477;DHT22;1249;51.270;6.756;2022-12-29T03:18:57;12.70;99.90
2477;DHT22;1249;51.270;6.756;2022-12-29T03:21:32;12.70;99.90
2477;DHT22;1249;51.270;6.756;2022-12-29T03:24:18;12.80;99.90
2477;DHT22;1249;51.270;6.756;2022-12-29T03:26:48;12.80;99.90
2477;DHT22;1249;51.270;6.756;2022-12-29T03:29:17;12.60;99.90
2477;DHT22;1249;51.270;6.756;2022-12-29T03:31:45;12.80;99.90
2477;DHT22;1249;51.270;6.756;2022-12-29T03:34:16;12.70;99.90
2477;DHT22;1249;51.270;6.756;2022-12-29T03:36:47;12.60;99.90
2477;DHT22;1249;51.270;6.756;2022-12-29T03:39:14;12.50;99.90
2477;DHT22;1249;51.270;6.756;2022-12-29T03:41:43;12.70;99.90
2477;DHT22;1249;51.270;6.756;2022-12-29T03:44:11;12.60;99.90
2477;DHT22;1249;51.270;6.756;2022-12-29T03:46:39;12.50;99.90
2477;DHT22;1249;51.270;6.756;2022-12-29T03:49:05;12.50;99.90
2477;DHT22;1249;51.270;6.756;2022-12-29T03:51:34;12.50;99.90
2477;DHT22;1249;51.270;6.756;2022-12-29T03:54:00;12.60;99.90
2477;DHT22;1249;51.270;6.756;2022-12-29T03:56:27;12.70;99.90
2477;DHT22;1249;51.270;6.756;2022-12-29T03:58:54;12.60;99.90
2477;DHT22;1249;51.270;6.756;2022-12-29T04:01:21;12.50;99.90
2477;DHT22;1249;51.270;6.756;2022-12-29T04:03:48;12.60;99.90
2477;DHT22;1249;51.270;6.756;2022-12-29T04:06:15;12.70;99.90
2477;DHT22;1249;51.270;6.756;2022-12-29T04:08:43;12.80;99.90
2477;DHT22;1249;51.270;6.756;2022-12-29T04:11:10;12.70;99.90
2477;DHT22;1249;51.270;6.756;2022-12-29T04:13:36;12.70;99.90
2477;DHT22;1249;51.270;6.756;2022-12-29T04:16:06;12.70;99.90
2477;DHT22;1249;51.270;6.756;2022-12-29T04:18:33;12.70;99.90
2477;DHT22;1249;51.270;6.756;2022-12-29T04:21:00;12.70;99.90
2477;DHT22;1249;51.270;6.756;2022-12-29T04:23:28;12.80;99.90
2477;DHT22;1249;51.270;6.756;2022-12-29T04:25:57;12.80;99.90
2477;DHT22;1249;51.270;6.756;2022-12-29T04:28:24;13.00;99.90
2477;DHT22;1249;51.270;6.756;2022-12-29T04:30:51;12.90;99.90
2477;DHT22;1249;51.270;6.756;2022-12-29T04:33:18;12.80;99.90
2477;DHT22;1249;51.270;6.756;2022-12-29T04:35:45;12.70;99.90
2477;DHT22;1249;51.270;6.756;2022-12-29T04:38:13;12.70;99.90
2477;DHT22;1249;51.270;6.756;2022-12-29T04:40:41;12.70;99.90
2477;DHT22;1249;51.270;6.756;2022-12-29T04:43:10;12.90;99.90
2477;DHT22;1249;51.270;6.756;2022-12-29T04:45:38;12.90;99.90
2477;DHT22;1249;51.270;6.756;2022-12-29T04:48:05;12.90;99.90
2477;DHT22;1249;51.270;6.756;2022-12-29T04:50:32;12.80;99.90
2477;DHT22;1249;51.270;6.756;2022-12-29T04:52:58;12.80;99.90
2477;DHT22;1249;51.270;6.756;2022-12-29T04:55:25;12.80;99.90
2477;DHT22;1249;51.270;6.756;2022-12-29T04:57:52;12.80;99.90
2477;DHT22;1249;51.270;6.756;2022-12-29T05:00:21;12.90;99.90
2477;DHT22;1249;51.270;6.756;2022-12-29T05:02:48;12.90;99.90
2477;DHT22;1249;51.270;6.756;2022-12-29T05:05:15;12.90;99.90
2477;DHT22;1249;51.270;6.756;2022-12-29T05:07:42;12.90;99.90
2477;DHT22;1249;51.270;6.756;2022-12-29T05:10:09;12.70;99.90
2477;DHT22;1249;51.270;6.756;2022-12-29T05:12:37;13.00;99.90
2477;DHT22;1249;51.270;6.756;2022-12-29T05:15:04;12.90;99.90
2477;DHT22;1249;51.270;6.756;2022-12-29T05:17:33;12.80;99.90
2477;DHT22;1249;51.270;6.756;2022-12-29T05:20:00;13.00;99.90
2477;DHT22;1249;51.270;6.756;2022-12-29T05:22:27;12.90;99.90
2477;DHT22;1249;51.270;6.756;2022-12-29T05:24:55;13.00;99.90
2477;DHT22;1249;51.270;6.756;2022-12-29T05:27:22;13.10;99.90
2477;DHT22;1249;51.270;6.756;2022-12-29T05:29:49;13.00;99.90
2477;DHT22;1249;51.270;6.756;2022-12-29T05:32:16;13.00;99.90
2477;DHT22;1249;51.270;6.756;2022-12-29T05:34:44;12.90;99.90
2477;DHT22;1249;51.270;6.756;2022-12-29T05:37:11;13.00;99.90
2477;DHT22;1249;51.270;6.756;2022-12-29T05:39:38;13.10;99.90
2477;DHT22;1249;51.270;6.756;2022-12-29T05:42:05;13.20;99.90
2477;DHT22;1249;51.270;6.756;2022-12-29T05:44:32;13.10;99.90
2477;DHT22;1249;51.270;6.756;2022-12-29T05:47:00;13.00;99.90
2477;DHT22;1249;51.270;6.756;2022-12-29T05:49:27;12.90;99.90
2477;DHT22;1249;51.270;6.756;2022-12-29T05:51:55;12.90;99.90
2477;DHT22;1249;51.270;6.756;2022-12-29T05:54:22;12.80;99.90
2477;DHT22;1249;51.270;6.756;2022-12-29T05:56:49;12.90;99.90
2477;DHT22;1249;51.270;6.756;2022-12-29T05:59:16;13.00;99.90
2477;DHT22;1249;51.270;6.756;2022-12-29T06:01:42;13.00;99.90
2477;DHT22;1249;51.270;6.756;2022-12-29T06:04:09;12.90;99.90
2477;DHT22;1249;51.270;6.756;2022-12-29T06:06:36;13.00;99.90
2477;DHT22;1249;51.270;6.756;2022-12-29T06:09:05;13.00;99.90
2477;DHT22;1249;51.270;6.756;2022-12-29T06:11:32;12.90;99.90
2477;DHT22;1249;51.270;6.756;2022-12-29T06:13:59;13.00;99.90
2477;DHT22;1249;51.270;6.756;2022-12-29T06:16:26;12.90;99.90
2477;DHT22;1249;51.270;6.756;2022-12-29T06:18:53;12.90;99.90
2477;DHT22;1249;51.270;6.756;2022-12-29T06:21:20;12.90;99.90
2477;DHT22;1249;51.270;6.756;2022-12-29T06:23:46;13.10;99.90
2477;DHT22;1249;51.270;6.756;2022-12-29T06:26:15;13.00;99.90
2477;DHT22;1249;51.270;6.756;2022-12-29T06:28:41;13.10;99.90
2477;DHT22;1249;51.270;6.756;2022-12-29T06:31:09;13.10;99.90
2477;DHT22;1249;51.270;6.756;2022-12-29T06:33:36;13.10;99.90
2477;DHT22;1249;51.270;6.756;2022-12-29T06:36:03;13.10;99.90
2477;DHT22;1249;51.270;6.756;2022-12-29T06:38:30;13.40;99.90
2477;DHT22;1249;51.270;6.756;2022-12-29T06:40:57;13.70;99.90
2477;DHT22;1249;51.270;6.756;2022-12-29T06:43:25;14.10;99.90
2477;DHT22;1249;51.270;6.756;2022-12-29T06:45:52;14.40;99.90
2477;DHT22;1249;51.270;6.756;2022-12-29T06:48:19;14.70;99.90
2477;DHT22;1249;51.270;6.756;2022-12-29T06:50:45;14.80;99.90
2477;DHT22;1249;51.270;6.756;2022-12-29T06:53:12;15.00;99.90
2477;DHT22;1249;51.270;6.756;2022-12-29T06:55:39;15.10;99.90
2477;DHT22;1249;51.270;6.756;2022-12-29T06:58:07;15.10;99.90
2477;DHT22;1249;51.270;6.756;2022-12-29T07:00:36;15.30;99.90
2477;DHT22;1249;51.270;6.756;2022-12-29T07:03:03;15.30;99.90
2477;DHT22;1249;51.270;6.756;2022-12-29T07:05:29;14.70;99.90
2477;DHT22;1249;51.270;6.756;2022-12-29T07:07:58;14.50;99.90
2477;DHT22;1249;51.270;6.756;2022-12-29T07:10:25;14.40;99.90
2477;DHT22;1249;51.270;6.756;2022-12-29T07:12:52;14.00;99.90
2477;DHT22;1249;51.270;6.756;2022-12-29T07:15:19;13.90;99.90
2477;DHT22;1249;51.270;6.756;2022-12-29T07:17:47;13.60;99.90
2477;DHT22;1249;51.270;6.756;2022-12-29T07:20:15;13.50;99.90
2477;DHT22;1249;51.270;6.756;2022-12-29T07:22:42;13.40;99.90
2477;DHT22;1249;51.270;6.756;2022-12-29T07:25:09;13.40;99.90
2477;DHT22;1249;51.270;6.756;2022-12-29T07:27:36;13.30;99.90
2477;DHT22;1249;51.270;6.756;2022-12-29T07:30:03;13.40;99.90
2477;DHT22;1249;51.270;6.756;2022-12-29T07:32:32;13.10;99.90
2477;DHT22;1249;51.270;6.756;2022-12-29T07:35:04;13.10;99.90
2477;DHT22;1249;51.270;6.756;2022-12-29T07:37:31;13.40;99.90
2477;DHT22;1249;51.270;6.756;2022-12-29T07:39:58;13.10;99.90
2477;DHT22;1249;51.270;6.756;2022-12-29T07:42:24;12.90;99.90
2477;DHT22;1249;51.270;6.756;2022-12-29T07:44:51;13.00;99.90
2477;DHT22;1249;51.270;6.756;2022-12-29T07:47:18;13.00;99.90
2477;DHT22;1249;51.270;6.756;2022-12-29T07:49:45;13.00;99.90
2477;DHT22;1249;51.270;6.756;2022-12-29T07:52:14;12.90;99.90
2477;DHT22;1249;51.270;6.756;2022-12-29T07:54:40;12.70;99.90
2477;DHT22;1249;51.270;6.756;2022-12-29T07:57:07;12.60;99.90
2477;DHT22;1249;51.270;6.756;2022-12-29T07:59:34;12.80;99.90
2477;DHT22;1249;51.270;6.756;2022-12-29T08:02:01;12.70;99.90
2477;DHT22;1249;51.270;6.756;2022-12-29T08:04:28;12.70;99.90
2477;DHT22;1249;51.270;6.756;2022-12-29T08:06:54;12.70;99.90
2477;DHT22;1249;51.270;6.756;2022-12-29T08:09:22;12.80;99.90
2477;DHT22;1249;51.270;6.756;2022-12-29T08:11:49;13.00;99.90
2477;DHT22;1249;51.270;6.756;2022-12-29T08:14:16;12.80;99.90
2477;DHT22;1249;51.270;6.756;2022-12-29T08:16:43;12.90;99.90
2477;DHT22;1249;51.270;6.756;2022-12-29T08:19:10;13.00;99.90
2477;DHT22;1249;51.270;6.756;2022-12-29T08:21:37;13.20;99.90
2477;DHT22;1249;51.270;6.756;2022-12-29T08:24:05;12.80;99.90
2477;DHT22;1249;51.270;6.756;2022-12-29T08:26:37;12.70;99.90
2477;DHT22;1249;51.270;6.756;2022-12-29T08:29:07;12.60;99.90
2477;DHT22;1249;51.270;6.756;2022-12-29T08:31:34;12.80;99.90
2477;DHT22;1249;51.270;6.756;2022-12-29T08:34:01;12.70;99.90
2477;DHT22;1249;51.270;6.756;2022-12-29T08:36:28;12.90;99.90
2477;DHT22;1249;51.270;6.756;2022-12-29T08:38:55;12.80;99.90
2477;DHT22;1249;51.270;6.756;2022-12-29T08:41:24;12.60;99.90
2477;DHT22;1249;51.270;6.756;2022-12-29T08:43:53;12.70;99.90
2477;DHT22;1249;51.270;6.756;2022-12-29T08:46:20;12.50;99.90
2477;DHT22;1249;51.270;6.756;2022-12-29T08:48:46;12.60;99.90
2477;DHT22;1249;51.270;6.756;2022-12-29T08:51:13;12.60;99.90
2477;DHT22;1249;51.270;6.756;2022-12-29T08:53:40;12.80;99.90
2477;DHT22;1249;51.270;6.756;2022-12-29T08:56:08;13.10;99.90
2477;DHT22;1249;51.270;6.756;2022-12-29T09:02:01;14.10;99.90
2477;DHT22;1249;51.270;6.756;2022-12-29T09:04:28;14.40;99.90
2477;DHT22;1249;51.270;6.756;2022-12-29T09:06:57;14.60;99.90
2477;DHT22;1249;51.270;6.756;2022-12-29T09:09:30;14.60;99.90
2477;DHT22;1249;51.270;6.756;2022-12-29T09:12:22;14.70;99.90
2477;DHT22;1249;51.270;6.756;2022-12-29T09:15:10;14.80;99.90
2477;DHT22;1249;51.270;6.756;2022-12-29T09:17:42;15.10;99.90
2477;DHT22;1249;51.270;6.756;2022-12-29T09:20:14;15.10;99.90
2477;DHT22;1249;51.270;6.756;2022-12-29T09:22:41;15.40;99.90
2477;DHT22;1249;51.270;6.756;2022-12-29T09:25:09;15.40;99.90
2477;DHT22;1249;51.270;6.756;2022-12-29T09:27:36;15.00;99.90
2477;DHT22;1249;51.270;6.756;2022-12-29T09:30:06;14.60;99.90
2477;DHT22;1249;51.270;6.756;2022-12-29T09:32:33;14.40;99.90
2477;DHT22;1249;51.270;6.756;2022-12-29T09:35:02;14.20;99.90
2477;DHT22;1249;51.270;6.756;2022-12-29T09:37:29;13.80;99.90
2477;DHT22;1249;51.270;6.756;2022-12-29T09:39:56;13.70;99.90
2477;DHT22;1249;51.270;6.756;2022-12-29T09:42:26;13.30;99.90
2477;DHT22;1249;51.270;6.756;2022-12-29T09:45:08;13.40;99.90
2477;DHT22;1249;51.270;6.756;2022-12-29T09:47:37;13.30;99.90
2477;DHT22;1249;51.270;6.756;2022-12-29T09:50:11;13.60;99.90
2477;DHT22;1249;51.270;6.756;2022-12-29T09:52:42;13.30;99.90
2477;DHT22;1249;51.270;6.756;2022-12-29T09:55:14;13.30;99.90
2477;DHT22;1249;51.270;6.756;2022-12-29T09:57:46;13.20;99.90
2477;DHT22;1249;51.270;6.756;2022-12-29T10:00:16;13.10;99.90
2477;DHT22;1249;51.270;6.756;2022-12-29T10:02:46;13.10;99.90
2477;DHT22;1249;51.270;6.756;2022-12-29T10:05:33;13.30;99.90
2477;DHT22;1249;51.270;6.756;2022-12-29T10:08:22;13.30;99.90
2477;DHT22;1249;51.270;6.756;2022-12-29T10:10:55;13.50;99.90
2477;DHT22;1249;51.270;6.756;2022-12-29T10:13:39;13.50;99.90
2477;DHT22;1249;51.270;6.756;2022-12-29T10:16:12;13.40;99.90
2477;DHT22;1249;51.270;6.756;2022-12-29T10:21:56;13.40;99.90
2477;DHT22;1249;51.270;6.756;2022-12-29T10:24:26;13.50;99.90
2477;DHT22;1249;51.270;6.756;2022-12-29T10:26:55;14.00;99.90
2477;DHT22;1249;51.270;6.756;2022-12-29T10:29:26;14.30;99.90
2477;DHT22;1249;51.270;6.756;2022-12-29T10:31:59;14.90;99.90
2477;DHT22;1249;51.270;6.756;2022-12-29T10:34:30;14.80;99.90
2477;DHT22;1249;51.270;6.756;2022-12-29T10:37:03;14.60;99.90
2477;DHT22;1249;51.270;6.756;2022-12-29T10:39:32;14.60;99.90
2477;DHT22;1249;51.270;6.756;2022-12-29T10:42:05;14.80;99.90
2477;DHT22;1249;51.270;6.756;2022-12-29T10:44:36;14.80;99.90
2477;DHT22;1249;51.270;6.756;2022-12-29T10:47:05;15.00;99.90
2477;DHT22;1249;51.270;6.756;2022-12-29T10:49:37;15.40;99.90
2477;DHT22;1249;51.270;6.756;2022-12-29T10:52:06;15.90;99.90
2477;DHT22;1249;51.270;6.756;2022-12-29T10:54:41;16.10;99.90
2477;DHT22;1249;51.270;6.756;2022-12-29T10:57:11;16.50;99.90
2477;DHT22;1249;51.270;6.756;2022-12-29T10:59:41;16.40;99.90
2477;DHT22;1249;51.270;6.756;2022-12-29T11:05:06;15.70;99.90
2477;DHT22;1249;51.270;6.756;2022-12-29T11:07:38;15.50;99.90
2477;DHT22;1249;51.270;6.756;2022-12-29T11:10:20;14.90;99.90
2477;DHT22;1249;51.270;6.756;2022-12-29T11:12:58;14.90;99.90
2477;DHT22;1249;51.270;6.756;2022-12-29T11:15:26;14.80;99.90
2477;DHT22;1249;51.270;6.756;2022-12-29T11:17:59;14.60;99.90
2477;DHT22;1249;51.270;6.756;2022-12-29T11:20:32;14.00;99.90
2477;DHT22;1249;51.270;6.756;2022-12-29T11:23:20;14.00;99.90
2477;DHT22;1249;51.270;6.756;2022-12-29T11:26:14;14.10;99.90
2477;DHT22;1249;51.270;6.756;2022-12-29T11:29:11;14.20;99.90
2477;DHT22;1249;51.270;6.756;2022-12-29T11:31:59;14.00;99.90
2477;DHT22;1249;51.270;6.756;2022-12-29T11:34:43;13.90;99.90
2477;DHT22;1249;51.270;6.756;2022-12-29T11:37:26;13.80;99.90
2477;DHT22;1249;51.270;6.756;2022-12-29T11:42:58;14.10;99.90
2477;DHT22;1249;51.270;6.756;2022-12-29T11:45:30;13.90;99.90
2477;DHT22;1249;51.270;6.756;2022-12-29T11:48:00;13.90;99.90
2477;DHT22;1249;51.270;6.756;2022-12-29T11:50:30;13.80;99.90
2477;DHT22;1249;51.270;6.756;2022-12-29T11:53:00;13.80;99.90
2477;DHT22;1249;51.270;6.756;2022-12-29T11:55:29;13.80;99.90
2477;DHT22;1249;51.270;6.756;2022-12-29T11:57:59;13.90;99.90
2477;DHT22;1249;51.270;6.756;2022-12-29T12:00:31;14.00;99.90
2477;DHT22;1249;51.270;6.756;2022-12-29T12:03:00;14.00;99.90
2477;DHT22;1249;51.270;6.756;2022-12-29T12:05:35;13.60;99.90
2477;DHT22;1249;51.270;6.756;2022-12-29T12:08:09;13.60;99.90
2477;DHT22;1249;51.270;6.756;2022-12-29T12:10:43;13.60;99.90
2477;DHT22;1249;51.270;6.756;2022-12-29T12:13:18;13.80;99.90
2477;DHT22;1249;51.270;6.756;2022-12-29T12:15:50;13.80;99.90
2477;DHT22;1249;51.270;6.756;2022-12-29T12:18:24;13.90;99.90
2477;DHT22;1249;51.270;6.756;2022-12-29T12:20:56;13.80;99.90
2477;DHT22;1249;51.270;6.756;2022-12-29T12:23:31;13.80;99.90
2477;DHT22;1249;51.270;6.756;2022-12-29T12:26:09;13.80;99.90
2477;DHT22;1249;51.270;6.756;2022-12-29T12:28:42;14.10;99.90
2477;DHT22;1249;51.270;6.756;2022-12-29T12:31:18;14.20;99.90
2477;DHT22;1249;51.270;6.756;2022-12-29T12:33:52;14.00;99.90
2477;DHT22;1249;51.270;6.756;2022-12-29T12:36:32;14.40;99.90
2477;DHT22;1249;51.270;6.756;2022-12-29T12:39:11;14.70;99.90
2477;DHT22;1249;51.270;6.756;2022-12-29T12:41:47;14.60;99.90
2477;DHT22;1249;51.270;6.756;2022-12-29T12:44:21;14.30;99.90
2477;DHT22;1249;51.270;6.756;2022-12-29T12:47:03;13.90;99.90
2477;DHT22;1249;51.270;6.756;2022-12-29T12:50:04;14.00;99.90
2477;DHT22;1249;51.270;6.756;2022-12-29T12:52:42;13.90;99.90
2477;DHT22;1249;51.270;6.756;2022-12-29T12:55:30;14.00;99.90
2477;DHT22;1249;51.270;6.756;2022-12-29T12:58:08;14.00;99.90
2477;DHT22;1249;51.270;6.756;2022-12-29T13:00:58;13.70;99.90
2477;DHT22;1249;51.270;6.756;2022-12-29T13:03:43;13.60;99.90
2477;DHT22;1249;51.270;6.756;2022-12-29T13:06:18;13.70;99.90
2477;DHT22;1249;51.270;6.756;2022-12-29T13:09:08;13.60;99.90
2477;DHT22;1249;51.270;6.756;2022-12-29T13:11:49;13.60;99.90
2477;DHT22;1249;51.270;6.756;2022-12-29T13:14:28;13.60;99.90
2477;DHT22;1249;51.270;6.756;2022-12-29T13:17:02;13.60;99.90
2477;DHT22;1249;51.270;6.756;2022-12-29T13:19:37;13.50;99.90
2477;DHT22;1249;51.270;6.756;2022-12-29T13:22:09;13.50;99.90
2477;DHT22;1249;51.270;6.756;2022-12-29T13:24:48;13.30;99.90
2477;DHT22;1249;51.270;6.756;2022-12-29T13:27:21;13.40;99.90
2477;DHT22;1249;51.270;6.756;2022-12-29T13:29:59;13.40;99.90
2477;DHT22;1249;51.270;6.756;2022-12-29T13:32:36;13.60;99.90
2477;DHT22;1249;51.270;6.756;2022-12-29T13:35:19;13.60;99.90
2477;DHT22;1249;51.270;6.756;2022-12-29T13:37:52;13.70;99.90
2477;DHT22;1249;51.270;6.756;2022-12-29T13:40:23;13.90;99.90
2477;DHT22;1249;51.270;6.756;2022-12-29T13:42:52;13.90;99.90
2477;DHT22;1249;51.270;6.756;2022-12-29T13:45:22;13.70;99.90
2477;DHT22;1249;51.270;6.756;2022-12-29T13:47:54;13.70;99.90
2477;DHT22;1249;51.270;6.756;2022-12-29T13:50:26;13.70;99.90
2477;DHT22;1249;51.270;6.756;2022-12-29T13:53:01;13.70;99.90
2477;DHT22;1249;51.270;6.756;2022-12-29T13:55:35;13.50;99.90
2477;DHT22;1249;51.270;6.756;2022-12-29T13:58:07;13.60;99.90
2477;DHT22;1249;51.270;6.756;2022-12-29T14:00:44;13.60;99.90
2477;DHT22;1249;51.270;6.756;2022-12-29T14:03:27;13.40;99.90
2477;DHT22;1249;51.270;6.756;2022-12-29T14:06:13;13.50;99.90
2477;DHT22;1249;51.270;6.756;2022-12-29T14:08:40;13.30;99.90
2477;DHT22;1249;51.270;6.756;2022-12-29T14:11:09;13.20;99.90
2477;DHT22;1249;51.270;6.756;2022-12-29T14:13:39;13.30;99.90
2477;DHT22;1249;51.270;6.756;2022-12-29T14:16:20;13.20;99.90
2477;DHT22;1249;51.270;6.756;2022-12-29T14:18:49;13.20;99.90
2477;DHT22;1249;51.270;6.756;2022-12-29T14:21:19;13.00;99.90
2477;DHT22;1249;51.270;6.756;2022-12-29T14:23:49;13.10;99.90
2477;DHT22;1249;51.270;6.756;2022-12-29T14:26:18;13.10;99.90
2477;DHT22;1249;51.270;6.756;2022-12-29T14:29:16;13.10;99.90
2477;DHT22;1249;51.270;6.756;2022-12-29T14:32:37;13.20;99.90
2477;DHT22;1249;51.270;6.756;2022-12-29T14:35:37;13.20;99.90
2477;DHT22;1249;51.270;6.756;2022-12-29T14:38:07;13.20;99.90
2477;DHT22;1249;51.270;6.756;2022-12-29T14:40:40;13.20;99.90
2477;DHT22;1249;51.270;6.756;2022-12-29T14:43:12;13.20;99.90
2477;DHT22;1249;51.270;6.756;2022-12-29T14:45:42;13.10;99.90
2477;DHT22;1249;51.270;6.756;2022-12-29T14:48:36;13.20;99.90
2477;DHT22;1249;51.270;6.756;2022-12-29T14:51:18;13.10;99.90
2477;DHT22;1249;51.270;6.756;2022-12-29T14:53:47;13.20;99.90
2477;DHT22;1249;51.270;6.756;2022-12-29T14:56:16;13.30;99.90
2477;DHT22;1249;51.270;6.756;2022-12-29T14:58:47;13.20;99.90
2477;DHT22;1249;51.270;6.756;2022-12-29T15:01:19;13.00;99.90
2477;DHT22;1249;51.270;6.756;2022-12-29T15:03:50;13.00;99.90
2477;DHT22;1249;51.270;6.756;2022-12-29T15:06:17;12.90;99.90
2477;DHT22;1249;51.270;6.756;2022-12-29T15:08:51;12.70;99.90
2477;DHT22;1249;51.270;6.756;2022-12-29T15:11:20;12.60;99.90
2477;DHT22;1249;51.270;6.756;2022-12-29T15:13:47;12.70;99.90
2477;DHT22;1249;51.270;6.756;2022-12-29T15:16:22;12.80;99.90
2477;DHT22;1249;51.270;6.756;2022-12-29T15:18:50;12.70;99.90
2477;DHT22;1249;51.270;6.756;2022-12-29T15:21:17;12.80;99.90
2477;DHT22;1249;51.270;6.756;2022-12-29T15:23:46;12.90;99.90
2477;DHT22;1249;51.270;6.756;2022-12-29T15:26:13;13.00;99.90
2477;DHT22;1249;51.270;6.756;2022-12-29T15:28:47;12.90;99.90
2477;DHT22;1249;51.270;6.756;2022-12-29T15:31:16;12.80;99.90
2477;DHT22;1249;51.270;6.756;2022-12-29T15:33:44;12.80;99.90
2477;DHT22;1249;51.270;6.756;2022-12-29T15:36:18;12.80;99.90
2477;DHT22;1249;51.270;6.756;2022-12-29T15:38:46;13.00;99.90
2477;DHT22;1249;51.270;6.756;2022-12-29T15:41:23;12.90;99.90
2477;DHT22;1249;51.270;6.756;2022-12-29T15:44:02;12.80;99.90
2477;DHT22;1249;51.270;6.756;2022-12-29T15:46:31;12.90;99.90
2477;DHT22;1249;51.270;6.756;2022-12-29T15:48:58;12.80;99.90
2477;DHT22;1249;51.270;6.756;2022-12-29T15:51:29;12.70;99.90
2477;DHT22;1249;51.270;6.756;2022-12-29T15:53:58;12.70;99.90
2477;DHT22;1249;51.270;6.756;2022-12-29T15:56:28;12.80;99.90
2477;DHT22;1249;51.270;6.756;2022-12-29T15:58:55;12.80;99.90
2477;DHT22;1249;51.270;6.756;2022-12-29T16:01:26;12.70;99.90
2477;DHT22;1249;51.270;6.756;2022-12-29T16:03:54;12.60;99.90
2477;DHT22;1249;51.270;6.756;2022-12-29T16:06:29;12.80;99.90
2477;DHT22;1249;51.270;6.756;2022-12-29T16:08:57;13.00;99.90
2477;DHT22;1249;51.270;6.756;2022-12-29T16:11:26;13.30;99.90
2477;DHT22;1249;51.270;6.756;2022-12-29T16:13:54;13.60;99.90
2477;DHT22;1249;51.270;6.756;2022-12-29T16:16:25;13.70;99.90
2477;DHT22;1249;51.270;6.756;2022-12-29T16:18:54;13.90;99.90
2477;DHT22;1249;51.270;6.756;2022-12-29T16:24:01;14.00;99.90
2477;DHT22;1249;51.270;6.756;2022-12-29T16:26:28;14.10;99.90
2477;DHT22;1249;51.270;6.756;2022-12-29T16:28:59;14.20;99.90
2477;DHT22;1249;51.270;6.756;2022-12-29T16:31:33;14.10;99.90
2477;DHT22;1249;51.270;6.756;2022-12-29T16:34:11;14.00;99.90
2477;DHT22;1249;51.270;6.756;2022-12-29T16:36:40;13.90;99.90
2477;DHT22;1249;51.270;6.756;2022-12-29T16:39:30;13.80;99.90
2477;DHT22;1249;51.270;6.756;2022-12-29T16:41:57;13.40;99.90
2477;DHT22;1249;51.270;6.756;2022-12-29T16:44:25;13.30;99.90
2477;DHT22;1249;51.270;6.756;2022-12-29T16:47:03;13.20;99.90
2477;DHT22;1249;51.270;6.756;2022-12-29T16:49:31;13.10;99.90
2477;DHT22;1249;51.270;6.756;2022-12-29T16:51:58;13.60;99.90